Terminal Aerodrome Forecast
Issued by NWS

Home | Current Version | Previous Version | Text Only | Print | Product List | Glossary On
Versions: 1 2 3 4 5 6 7 8 9 10 11 12 13
000
FTUS46 KSEW 142300
TAFHQM
TAF
KHQM 142331Z 1500/1524 31006KT P6SM SKC
     FM150300 07006KT P6SM SCT250
     FM151700 10010KT P6SM BKN250
     FM152100 17008KT P6SM BKN250=

USA.gov is the U.S. government's official web portal to all federal, state and local government web resources and services.